Time;durP1;ratioP1;P1;durP2;ratioP2;P2;SDS_P1;SDS_P2;PMS_P1;PMS_P2;Temp;Humidity;BMP_temperature;BMP_pressure;BME280_temperature;BME280_humidity;BME280_pressure;Samples;Min_cycle;Max_cycle;Signal;HPM_P1;HPM_P2
2022/03/19 00:01:49;;;;;;;0.25;0.10;;;;;;;;;;4924067;29;20071;-55
2022/03/19 00:04:14;;;;;;;0.20;0.20;;;;;;;;;;4925403;29;20020;-58
2022/03/19 00:06:40;;;;;;;0.50;0.50;;;;;;;;;;4920762;29;20127;-59
2022/03/19 00:09:06;;;;;;;0.00;0.00;;;;;;;;;;4918697;29;20040;-59
2022/03/19 00:11:31;;;;;;;0.00;0.00;;;;;;;;;;4923698;29;20020;-58
2022/03/19 00:13:57;;;;;;;0.20;0.10;;;;;;;;;;4916323;29;20020;-57
2022/03/19 00:16:22;;;;;;;0.00;0.00;;;;;;;;;;4922783;29;20035;-58
2022/03/19 00:18:47;;;;;;;0.60;0.60;;;;;;;;;;4918443;29;20032;-55
2022/03/19 00:21:12;;;;;;;0.00;0.00;;;;;;;;;;4922624;29;21273;-57
2022/03/19 00:23:38;;;;;;;0.30;0.30;;;;;;;;;;4917346;29;20087;-57
2022/03/19 00:26:03;;;;;;;0.00;0.00;;;;;;;;;;4922235;29;20035;-56
2022/03/19 00:28:28;;;;;;;0.13;0.13;;;;;;;;;;4924757;29;20027;-56
2022/03/19 00:30:54;;;;;;;0.00;0.00;;;;;;;;;;4926366;29;20022;-55
2022/03/19 00:33:19;;;;;;;0.10;0.10;;;;;;;;;;4904559;29;20036;-53
2022/03/19 00:35:44;;;;;;;0.00;0.00;;;;;;;;;;4921535;29;20039;-54
2022/03/19 00:38:09;;;;;;;0.60;0.60;;;;;;;;;;4924195;29;20042;-52
2022/03/19 00:40:35;;;;;;;0.80;0.40;;;;;;;;;;4925606;29;20426;-59
2022/03/19 00:43:01;;;;;;;0.28;0.28;;;;;;;;;;4920001;29;20055;-54
2022/03/19 00:45:27;;;;;;;0.00;0.00;;;;;;;;;;4919337;29;20107;-56
2022/03/19 00:47:52;;;;;;;0.00;0.00;;;;;;;;;;4920564;29;20052;-55
2022/03/19 00:50:17;;;;;;;0.45;0.35;;;;;;;;;;4920695;29;20560;-56
2022/03/19 00:52:43;;;;;;;0.00;0.00;;;;;;;;;;4924080;29;20046;-54
2022/03/19 00:55:09;;;;;;;0.28;0.28;;;;;;;;;;4919256;29;20031;-55
2022/03/19 00:57:41;;;;;;;0.10;0.10;;;;;;;;;;4927564;29;20055;-57
2022/03/19 01:00:08;;;;;;;0.00;0.00;;;;;;;;;;4921796;29;20020;-55
2022/03/19 01:02:33;;;;;;;0.10;0.10;;;;;;;;;;4923958;29;20110;-55
2022/03/19 01:04:58;;;;;;;1.30;0.85;;;;;;;;;;4922750;29;20189;-57
2022/03/19 01:07:23;;;;;;;0.52;0.52;;;;;;;;;;4922410;29;20431;-57
2022/03/19 01:09:48;;;;;;;0.22;0.22;;;;;;;;;;4916304;29;20027;-52
2022/03/19 01:12:14;;;;;;;0.00;0.00;;;;;;;;;;4922157;29;20032;-56
2022/03/19 01:14:39;;;;;;;1.45;1.45;;;;;;;;;;4925129;29;20028;-54
2022/03/19 01:17:04;;;;;;;0.10;0.10;;;;;;;;;;4923651;29;20039;-55
2022/03/19 01:22:13;;;;;;;2.28;2.08;;;;;;;;;;4922450;29;20083;-51
2022/03/19 01:24:38;;;;;;;0.00;0.00;;;;;;;;;;4925322;29;20020;-49
2022/03/19 01:27:03;;;;;;;1.13;0.45;;;;;;;;;;4920298;29;20478;-54
2022/03/19 01:29:29;;;;;;;2.30;0.35;;;;;;;;;;4921907;29;20091;-58
2022/03/19 01:31:54;;;;;;;0.00;0.00;;;;;;;;;;4918378;29;20036;-57
2022/03/19 01:34:19;;;;;;;0.00;0.00;;;;;;;;;;4919587;29;20444;-59
2022/03/19 01:36:44;;;;;;;0.60;0.17;;;;;;;;;;4924193;29;20541;-58
2022/03/19 01:39:09;;;;;;;0.55;0.55;;;;;;;;;;4920117;29;20026;-57
2022/03/19 01:41:39;;;;;;;0.10;0.10;;;;;;;;;;4923785;29;20457;-58
2022/03/19 01:44:05;;;;;;;0.10;0.10;;;;;;;;;;4922615;29;20020;-56
2022/03/19 01:46:30;;;;;;;0.47;0.47;;;;;;;;;;4920896;29;20016;-58
2022/03/19 01:48:55;;;;;;;0.00;0.00;;;;;;;;;;4919741;29;20020;-59
2022/03/19 01:51:20;;;;;;;0.88;0.88;;;;;;;;;;4923727;29;20031;-59
2022/03/19 01:53:45;;;;;;;0.00;0.00;;;;;;;;;;4923424;29;20059;-58
2022/03/19 01:56:11;;;;;;;0.00;0.00;;;;;;;;;;4919789;29;20016;-58
2022/03/19 01:58:36;;;;;;;3.03;0.90;;;;;;;;;;4924443;29;20027;-57
2022/03/19 02:01:01;;;;;;;0.35;0.35;;;;;;;;;;4921102;29;20045;-55
2022/03/19 02:03:28;;;;;;;0.00;0.00;;;;;;;;;;4912517;29;20445;-56
2022/03/19 02:05:53;;;;;;;0.00;0.00;;;;;;;;;;4921512;29;20123;-55
2022/03/19 02:08:19;;;;;;;0.00;0.00;;;;;;;;;;4920304;29;20122;-56
2022/03/19 02:10:44;;;;;;;0.00;0.00;;;;;;;;;;4926510;29;20039;-58
2022/03/19 02:13:10;;;;;;;0.00;0.00;;;;;;;;;;4922727;29;20032;-59
2022/03/19 02:15:35;;;;;;;0.00;0.00;;;;;;;;;;4904962;29;20027;-59
2022/03/19 02:18:00;;;;;;;0.00;0.00;;;;;;;;;;4926098;29;20034;-57
2022/03/19 02:20:26;;;;;;;0.00;0.00;;;;;;;;;;4925534;29;20064;-58
2022/03/19 02:25:37;;;;;;;0.20;0.20;;;;;;;;;;4922173;29;20022;-57
2022/03/19 02:28:04;;;;;;;0.68;0.68;;;;;;;;;;4922593;29;20118;-54
2022/03/19 02:30:29;;;;;;;0.00;0.00;;;;;;;;;;4920362;29;20031;-58
2022/03/19 02:32:55;;;;;;;0.00;0.00;;;;;;;;;;4917107;29;20067;-59
2022/03/19 02:35:20;;;;;;;0.00;0.00;;;;;;;;;;4922988;29;20518;-58
2022/03/19 02:37:47;;;;;;;0.00;0.00;;;;;;;;;;4924487;29;20032;-57
2022/03/19 02:40:13;;;;;;;0.00;0.00;;;;;;;;;;4924741;29;20032;-55
2022/03/19 02:42:39;;;;;;;0.00;0.00;;;;;;;;;;4924808;29;20039;-57
2022/03/19 02:45:06;;;;;;;0.00;0.00;;;;;;;;;;4925598;29;20031;-58
2022/03/19 02:47:32;;;;;;;0.00;0.00;;;;;;;;;;4925943;29;20023;-57
2022/03/19 02:49:58;;;;;;;0.55;0.52;;;;;;;;;;4927040;29;20025;-58
2022/03/19 02:52:23;;;;;;;2.65;0.47;;;;;;;;;;4925052;29;20031;-57
2022/03/19 02:54:48;;;;;;;2.85;2.50;;;;;;;;;;4924495;29;20678;-57
2022/03/19 02:57:13;;;;;;;0.15;0.15;;;;;;;;;;4925217;29;20040;-57
2022/03/19 02:59:39;;;;;;;0.00;0.00;;;;;;;;;;4925862;29;20070;-57
2022/03/19 03:02:05;;;;;;;0.03;0.03;;;;;;;;;;4924252;29;20098;-54
2022/03/19 03:04:31;;;;;;;0.10;0.10;;;;;;;;;;4923738;29;20064;-55
2022/03/19 03:06:57;;;;;;;0.03;0.00;;;;;;;;;;4926105;29;20071;-53
2022/03/19 03:09:24;;;;;;;1.85;1.10;;;;;;;;;;4924324;29;20069;-52
2022/03/19 03:11:50;;;;;;;0.00;0.00;;;;;;;;;;4929208;29;20027;-56
2022/03/19 03:14:15;;;;;;;0.00;0.00;;;;;;;;;;4927738;29;20043;-57
2022/03/19 03:16:41;;;;;;;0.00;0.00;;;;;;;;;;4926938;29;20059;-58
2022/03/19 03:19:07;;;;;;;0.00;0.00;;;;;;;;;;4923902;29;20103;-58
2022/03/19 03:21:33;;;;;;;0.00;0.00;;;;;;;;;;4925656;29;20032;-56
2022/03/19 03:23:59;;;;;;;0.00;0.00;;;;;;;;;;4921631;29;20079;-58
2022/03/19 03:26:25;;;;;;;0.00;0.00;;;;;;;;;;4929143;29;20036;-58
2022/03/19 03:28:50;;;;;;;1.75;1.65;;;;;;;;;;4928282;29;20192;-53
2022/03/19 03:31:15;;;;;;;0.00;0.00;;;;;;;;;;4926202;29;20088;-56
2022/03/19 03:33:40;;;;;;;0.40;0.40;;;;;;;;;;4924088;29;20133;-53
2022/03/19 03:36:06;;;;;;;0.10;0.10;;;;;;;;;;4925783;29;20024;-56
2022/03/19 03:38:31;;;;;;;0.00;0.00;;;;;;;;;;4921655;29;20034;-55
2022/03/19 03:40:57;;;;;;;1.00;0.98;;;;;;;;;;4923828;29;20024;-56
2022/03/19 03:43:22;;;;;;;3.72;2.25;;;;;;;;;;4925754;29;20032;-58
2022/03/19 03:45:47;;;;;;;0.00;0.00;;;;;;;;;;4927222;29;20523;-53
2022/03/19 03:48:12;;;;;;;0.00;0.00;;;;;;;;;;4922609;29;20099;-53
2022/03/19 03:50:38;;;;;;;0.10;0.10;;;;;;;;;;4925687;29;20034;-56
2022/03/19 03:53:04;;;;;;;0.05;0.05;;;;;;;;;;4927980;29;20059;-55
2022/03/19 03:55:29;;;;;;;0.00;0.00;;;;;;;;;;4926666;29;20389;-54
2022/03/19 03:57:56;;;;;;;0.00;0.00;;;;;;;;;;4923190;29;20031;-55
2022/03/19 04:00:21;;;;;;;0.00;0.00;;;;;;;;;;4926019;29;20056;-57
2022/03/19 04:02:46;;;;;;;0.00;0.00;;;;;;;;;;4925098;29;20050;-56
2022/03/19 04:05:11;;;;;;;0.00;0.00;;;;;;;;;;4924939;29;20131;-58
2022/03/19 04:07:37;;;;;;;1.33;0.52;;;;;;;;;;4924104;29;20062;-54
2022/03/19 04:10:02;;;;;;;0.00;0.00;;;;;;;;;;4923589;29;20040;-55
2022/03/19 04:12:27;;;;;;;0.00;0.00;;;;;;;;;;4921477;29;20038;-57
2022/03/19 04:14:53;;;;;;;0.00;0.00;;;;;;;;;;4925251;29;20032;-59
2022/03/19 04:17:18;;;;;;;0.00;0.00;;;;;;;;;;4920524;29;20036;-59
2022/03/19 04:19:44;;;;;;;0.00;0.00;;;;;;;;;;4909559;29;20196;-57
2022/03/19 04:22:10;;;;;;;0.00;0.00;;;;;;;;;;4927369;29;20397;-57
2022/03/19 04:24:36;;;;;;;0.00;0.00;;;;;;;;;;4925100;29;20537;-59
2022/03/19 04:27:01;;;;;;;0.00;0.00;;;;;;;;;;4923511;29;20358;-58
2022/03/19 04:29:26;;;;;;;0.00;0.00;;;;;;;;;;4924659;29;20921;-58
2022/03/19 04:31:51;;;;;;;0.15;0.15;;;;;;;;;;4925979;29;20019;-57
2022/03/19 04:34:17;;;;;;;0.00;0.00;;;;;;;;;;4928760;29;20098;-59
2022/03/19 04:36:42;;;;;;;0.00;0.00;;;;;;;;;;4922618;29;20019;-58
2022/03/19 04:39:08;;;;;;;0.00;0.00;;;;;;;;;;4926730;29;20111;-60
2022/03/19 04:41:34;;;;;;;0.00;0.00;;;;;;;;;;4919747;29;20277;-59
2022/03/19 04:43:59;;;;;;;0.00;0.00;;;;;;;;;;4906386;29;20036;-58
2022/03/19 04:46:25;;;;;;;0.00;0.00;;;;;;;;;;4923329;29;20023;-58
2022/03/19 04:48:50;;;;;;;1.25;1.25;;;;;;;;;;4928266;29;20070;-57
2022/03/19 04:51:19;;;;;;;0.00;0.00;;;;;;;;;;4919819;29;20023;-57
2022/03/19 04:53:50;;;;;;;0.20;0.20;;;;;;;;;;4923723;29;20036;-54
2022/03/19 04:56:15;;;;;;;0.00;0.00;;;;;;;;;;4916248;29;20066;-54
2022/03/19 04:58:41;;;;;;;0.00;0.00;;;;;;;;;;4918408;29;20063;-55
2022/03/19 05:01:06;;;;;;;0.00;0.00;;;;;;;;;;4923476;29;20473;-58
2022/03/19 05:03:31;;;;;;;0.00;0.00;;;;;;;;;;4918474;29;20056;-58
2022/03/19 05:05:56;;;;;;;0.00;0.00;;;;;;;;;;4926045;29;20102;-58
2022/03/19 05:08:22;;;;;;;0.00;0.00;;;;;;;;;;4922601;29;20030;-58
2022/03/19 05:13:31;;;;;;;0.00;0.00;;;;;;;;;;4920585;29;20088;-59
2022/03/19 05:15:56;;;;;;;0.00;0.00;;;;;;;;;;4923543;29;20552;-59
2022/03/19 05:18:21;;;;;;;0.00;0.00;;;;;;;;;;4921719;29;20047;-58
2022/03/19 05:20:47;;;;;;;0.00;0.00;;;;;;;;;;4923763;29;20405;-58
2022/03/19 05:23:12;;;;;;;0.00;0.00;;;;;;;;;;4920809;29;20020;-58
2022/03/19 05:25:38;;;;;;;0.00;0.00;;;;;;;;;;4922463;29;21678;-59
2022/03/19 05:28:03;;;;;;;0.00;0.00;;;;;;;;;;4921031;29;20020;-59
2022/03/19 05:30:29;;;;;;;0.00;0.00;;;;;;;;;;4920039;29;20030;-62
2022/03/19 05:32:54;;;;;;;0.00;0.00;;;;;;;;;;4923121;29;20032;-55
2022/03/19 05:35:20;;;;;;;0.00;0.00;;;;;;;;;;4919985;29;20035;-58
2022/03/19 05:37:47;;;;;;;0.00;0.00;;;;;;;;;;4918700;29;20043;-59
2022/03/19 05:40:12;;;;;;;0.00;0.00;;;;;;;;;;4925545;29;20359;-58
2022/03/19 05:42:37;;;;;;;0.00;0.00;;;;;;;;;;4924619;29;20056;-59
2022/03/19 05:45:03;;;;;;;0.00;0.00;;;;;;;;;;4922759;29;20051;-60
2022/03/19 05:47:28;;;;;;;0.00;0.00;;;;;;;;;;4923374;29;20462;-60
2022/03/19 05:49:53;;;;;;;0.00;0.00;;;;;;;;;;4919850;29;20027;-59
2022/03/19 05:52:19;;;;;;;0.00;0.00;;;;;;;;;;4922062;29;20093;-59
2022/03/19 05:54:44;;;;;;;0.00;0.00;;;;;;;;;;4919259;29;20044;-59
2022/03/19 05:57:09;;;;;;;0.08;0.08;;;;;;;;;;4922927;29;20168;-60
2022/03/19 05:59:34;;;;;;;0.00;0.00;;;;;;;;;;4919472;29;20028;-60
2022/03/19 06:02:00;;;;;;;0.00;0.00;;;;;;;;;;4918660;29;20090;-59
2022/03/19 06:04:25;;;;;;;0.00;0.00;;;;;;;;;;4923526;29;20024;-58
2022/03/19 06:06:50;;;;;;;0.00;0.00;;;;;;;;;;4922055;29;20032;-59
2022/03/19 06:09:15;;;;;;;0.00;0.00;;;;;;;;;;4921710;29;20022;-58
2022/03/19 06:11:42;;;;;;;0.00;0.00;;;;;;;;;;4924600;29;20074;-57
2022/03/19 06:14:07;;;;;;;0.00;0.00;;;;;;;;;;4925985;29;20398;-57
2022/03/19 06:16:33;;;;;;;0.00;0.00;;;;;;;;;;4922342;29;20024;-57
2022/03/19 06:18:58;;;;;;;0.17;0.17;;;;;;;;;;4924320;29;20024;-57
2022/03/19 06:21:23;;;;;;;0.00;0.00;;;;;;;;;;4910959;29;20042;-55
2022/03/19 06:23:52;;;;;;;0.00;0.00;;;;;;;;;;4930314;29;20075;-57
2022/03/19 06:26:18;;;;;;;0.00;0.00;;;;;;;;;;4927428;29;20095;-56
2022/03/19 06:28:43;;;;;;;0.00;0.00;;;;;;;;;;4925425;29;20020;-58
2022/03/19 06:31:09;;;;;;;0.00;0.00;;;;;;;;;;4927173;29;20023;-57
2022/03/19 06:33:34;;;;;;;0.00;0.00;;;;;;;;;;4928143;29;20028;-55
2022/03/19 06:38:43;;;;;;;0.00;0.00;;;;;;;;;;4918060;29;20046;-55
2022/03/19 06:41:10;;;;;;;0.00;0.00;;;;;;;;;;4923934;29;20460;-55
2022/03/19 06:43:35;;;;;;;0.00;0.00;;;;;;;;;;4925927;29;20036;-52
2022/03/19 06:46:00;;;;;;;0.00;0.00;;;;;;;;;;4926626;29;20470;-54
2022/03/19 06:48:26;;;;;;;0.00;0.00;;;;;;;;;;4913258;29;20027;-54
2022/03/19 06:50:53;;;;;;;0.00;0.00;;;;;;;;;;4923476;29;20028;-56
2022/03/19 06:53:18;;;;;;;0.00;0.00;;;;;;;;;;4925603;29;20030;-57
2022/03/19 06:55:44;;;;;;;6.43;1.50;;;;;;;;;;4925793;29;20035;-57
2022/03/19 06:58:09;;;;;;;0.00;0.00;;;;;;;;;;4927480;29;20421;-58
2022/03/19 07:00:35;;;;;;;0.00;0.00;;;;;;;;;;4923092;29;20082;-58
2022/03/19 07:03:01;;;;;;;0.00;0.00;;;;;;;;;;4926348;29;20023;-59
2022/03/19 07:05:27;;;;;;;0.60;0.60;;;;;;;;;;4909605;29;20033;-57
2022/03/19 07:07:53;;;;;;;0.57;0.57;;;;;;;;;;4910141;29;20036;-58
2022/03/19 07:10:19;;;;;;;0.00;0.00;;;;;;;;;;4906382;29;20032;-58
2022/03/19 07:12:48;;;;;;;0.47;0.17;;;;;;;;;;4907096;29;20029;-59
2022/03/19 07:15:14;;;;;;;2.33;2.22;;;;;;;;;;4902645;29;20103;-57
2022/03/19 07:17:39;;;;;;;0.55;0.55;;;;;;;;;;4907268;29;20132;-58
2022/03/19 07:20:05;;;;;;;0.10;0.10;;;;;;;;;;4902232;29;20037;-57
2022/03/19 07:22:44;;;;;;;0.28;0.28;;;;;;;;;;4910239;29;20370;-58
2022/03/19 07:25:10;;;;;;;0.30;0.30;;;;;;;;;;4906601;29;20481;-60
2022/03/19 07:27:35;;;;;;;1.15;1.05;;;;;;;;;;4903181;29;20024;-61
2022/03/19 07:30:00;;;;;;;1.25;1.08;;;;;;;;;;4910821;29;20032;-59
2022/03/19 07:32:25;;;;;;;0.10;0.10;;;;;;;;;;4899080;29;20036;-60
2022/03/19 07:34:51;;;;;;;0.55;0.55;;;;;;;;;;4907146;29;20048;-60
2022/03/19 07:37:16;;;;;;;0.35;0.35;;;;;;;;;;4904315;29;20114;-58
2022/03/19 07:39:42;;;;;;;0.30;0.30;;;;;;;;;;4901714;29;20083;-60
2022/03/19 07:42:09;;;;;;;0.90;0.43;;;;;;;;;;4903320;29;20039;-61
2022/03/19 07:44:34;;;;;;;0.47;0.47;;;;;;;;;;4905379;29;20048;-58
2022/03/19 07:46:59;;;;;;;0.38;0.17;;;;;;;;;;4900135;29;20028;-59
2022/03/19 07:49:24;;;;;;;0.85;0.85;;;;;;;;;;4908504;29;20060;-58
2022/03/19 07:51:55;;;;;;;0.80;0.80;;;;;;;;;;4901859;29;20028;-58
2022/03/19 07:54:20;;;;;;;0.50;0.50;;;;;;;;;;4906528;29;20029;-59
2022/03/19 07:56:46;;;;;;;0.65;0.45;;;;;;;;;;4904825;29;20043;-60
2022/03/19 07:59:12;;;;;;;0.60;0.45;;;;;;;;;;4904443;29;20107;-58
2022/03/19 08:01:37;;;;;;;2.90;0.85;;;;;;;;;;4900765;29;20100;-58
2022/03/19 08:04:02;;;;;;;0.52;0.52;;;;;;;;;;4904973;29;20044;-58
2022/03/19 08:06:27;;;;;;;0.00;0.00;;;;;;;;;;4923530;29;20040;-59
2022/03/19 08:08:53;;;;;;;0.47;0.47;;;;;;;;;;4927135;29;20103;-57
2022/03/19 08:11:19;;;;;;;0.00;0.00;;;;;;;;;;4922222;29;20367;-59
2022/03/19 08:13:44;;;;;;;1.10;0.93;;;;;;;;;;4921162;29;20046;-59
2022/03/19 08:16:09;;;;;;;0.10;0.10;;;;;;;;;;4921526;29;20039;-58
2022/03/19 08:18:35;;;;;;;0.50;0.50;;;;;;;;;;4922667;29;20024;-58
2022/03/19 08:21:00;;;;;;;0.32;0.30;;;;;;;;;;4922745;29;20036;-58
2022/03/19 08:23:26;;;;;;;0.00;0.00;;;;;;;;;;4922892;29;20021;-58
2022/03/19 08:25:51;;;;;;;3.95;1.27;;;;;;;;;;4927600;29;20042;-59
2022/03/19 08:28:16;;;;;;;0.63;0.63;;;;;;;;;;4921892;29;20022;-59
2022/03/19 08:30:41;;;;;;;0.00;0.00;;;;;;;;;;4920131;29;20031;-59
2022/03/19 08:33:07;;;;;;;0.30;0.30;;;;;;;;;;4925467;29;20035;-59
2022/03/19 08:35:32;;;;;;;0.00;0.00;;;;;;;;;;4903751;29;20080;-59
2022/03/19 08:40:41;;;;;;;1.02;0.45;;;;;;;;;;4919744;29;20091;-60
2022/03/19 08:43:06;;;;;;;1.85;1.77;;;;;;;;;;4922151;29;20473;-60
2022/03/19 08:45:32;;;;;;;1.15;0.22;;;;;;;;;;4919519;29;20620;-59
2022/03/19 08:47:57;;;;;;;0.00;0.00;;;;;;;;;;4920296;29;20024;-59
2022/03/19 08:50:24;;;;;;;0.00;0.00;;;;;;;;;;4919669;29;20066;-59
2022/03/19 08:52:49;;;;;;;0.15;0.10;;;;;;;;;;4923056;29;20019;-60
2022/03/19 08:55:15;;;;;;;0.10;0.10;;;;;;;;;;4922393;29;20404;-58
2022/03/19 08:57:40;;;;;;;2.15;1.40;;;;;;;;;;4925839;29;20032;-58
2022/03/19 09:00:07;;;;;;;2.80;1.20;;;;;;;;;;4920211;29;20430;-58
2022/03/19 09:02:32;;;;;;;3.78;1.10;;;;;;;;;;4925717;29;20016;-58
2022/03/19 09:04:58;;;;;;;0.00;0.00;;;;;;;;;;4922923;29;20393;-58
2022/03/19 09:07:24;;;;;;;0.00;0.00;;;;;;;;;;4923424;29;20443;-55
2022/03/19 09:09:52;;;;;;;0.68;0.68;;;;;;;;;;4926568;29;20603;-57
2022/03/19 09:12:19;;;;;;;0.93;0.93;;;;;;;;;;4925632;29;20024;-57
2022/03/19 09:14:44;;;;;;;0.00;0.00;;;;;;;;;;4922106;29;20039;-57
2022/03/19 09:17:09;;;;;;;1.58;1.50;;;;;;;;;;4921487;29;20032;-56
2022/03/19 09:19:35;;;;;;;1.80;1.25;;;;;;;;;;4921589;29;20095;-57
2022/03/19 09:22:00;;;;;;;0.35;0.35;;;;;;;;;;4924553;29;20024;-57
2022/03/19 09:24:26;;;;;;;2.08;2.00;;;;;;;;;;4905824;29;20594;-57
2022/03/19 09:26:52;;;;;;;0.25;0.13;;;;;;;;;;4923164;29;20028;-58
2022/03/19 09:29:17;;;;;;;0.20;0.20;;;;;;;;;;4918099;29;20036;-59
2022/03/19 09:31:42;;;;;;;1.02;0.60;;;;;;;;;;4924039;29;20482;-57
2022/03/19 09:34:08;;;;;;;1.25;0.57;;;;;;;;;;4917636;29;20031;-58
2022/03/19 09:36:33;;;;;;;6.63;2.10;;;;;;;;;;4920595;29;20016;-55
2022/03/19 09:38:58;;;;;;;0.75;0.75;;;;;;;;;;4925271;29;20047;-58
2022/03/19 09:41:23;;;;;;;3.28;0.77;;;;;;;;;;4923268;29;20704;-59
2022/03/19 09:43:49;;;;;;;0.20;0.20;;;;;;;;;;4919933;29;20038;-59
2022/03/19 09:46:15;;;;;;;0.75;0.75;;;;;;;;;;4922113;29;20119;-58
2022/03/19 09:48:40;;;;;;;3.03;1.05;;;;;;;;;;4922783;29;20493;-59
2022/03/19 09:51:08;;;;;;;0.25;0.25;;;;;;;;;;4922946;29;20024;-59
2022/03/19 09:53:33;;;;;;;2.83;2.17;;;;;;;;;;4920160;29;20055;-60
2022/03/19 09:55:58;;;;;;;3.08;1.27;;;;;;;;;;4905916;29;20479;-58
2022/03/19 09:58:24;;;;;;;4.28;2.72;;;;;;;;;;4921290;29;20578;-59
2022/03/19 10:00:50;;;;;;;1.85;1.75;;;;;;;;;;4921047;29;20492;-59
2022/03/19 10:03:15;;;;;;;2.28;2.17;;;;;;;;;;4922145;29;20024;-59
2022/03/19 10:08:36;;;;;;;1.65;1.55;;;;;;;;;;4918180;29;20055;-58
2022/03/19 10:11:11;;;;;;;2.45;2.13;;;;;;;;;;4917868;29;20028;-58
2022/03/19 10:13:44;;;;;;;1.27;1.17;;;;;;;;;;4919051;29;20028;-59
2022/03/19 10:16:09;;;;;;;0.88;0.85;;;;;;;;;;4900838;29;20117;-59
2022/03/19 10:18:35;;;;;;;1.50;1.40;;;;;;;;;;4920249;29;20521;-57
2022/03/19 10:21:13;;;;;;;1.58;1.48;;;;;;;;;;4924160;29;20031;-59
2022/03/19 10:23:42;;;;;;;5.78;2.63;;;;;;;;;;4923045;29;20027;-58
2022/03/19 10:26:08;;;;;;;0.83;0.83;;;;;;;;;;4922703;29;20027;-59
2022/03/19 10:28:34;;;;;;;2.15;1.90;;;;;;;;;;4919229;29;20750;-58
2022/03/19 10:30:59;;;;;;;2.60;1.88;;;;;;;;;;4923786;29;20099;-58
2022/03/19 10:33:30;;;;;;;1.15;1.00;;;;;;;;;;4922819;29;20436;-59
2022/03/19 10:36:06;;;;;;;1.30;1.05;;;;;;;;;;4923659;29;20031;-58
2022/03/19 10:38:39;;;;;;;0.55;0.47;;;;;;;;;;4914562;29;20040;-59
2022/03/19 10:41:04;;;;;;;4.80;2.20;;;;;;;;;;4917027;29;20055;-58
2022/03/19 10:43:32;;;;;;;1.75;1.65;;;;;;;;;;4919476;29;20444;-59
2022/03/19 10:45:58;;;;;;;1.05;0.60;;;;;;;;;;4917315;29;20067;-58
2022/03/19 10:48:25;;;;;;;2.70;1.80;;;;;;;;;;4917285;29;20411;-57
2022/03/19 10:50:51;;;;;;;1.60;1.25;;;;;;;;;;4923367;29;20024;-56
2022/03/19 10:53:17;;;;;;;6.60;1.65;;;;;;;;;;4917221;29;20090;-58
2022/03/19 10:55:42;;;;;;;3.35;2.10;;;;;;;;;;4915781;29;20028;-58
2022/03/19 10:58:08;;;;;;;0.68;0.68;;;;;;;;;;4922730;29;20028;-58
2022/03/19 11:00:35;;;;;;;1.27;0.75;;;;;;;;;;4916105;29;20028;-58
2022/03/19 11:03:02;;;;;;;1.30;0.50;;;;;;;;;;4921789;29;20466;-59
2022/03/19 11:05:28;;;;;;;1.25;1.15;;;;;;;;;;4906516;29;20040;-58
2022/03/19 11:07:54;;;;;;;0.20;0.20;;;;;;;;;;4926396;29;20027;-59
2022/03/19 11:10:21;;;;;;;1.05;0.95;;;;;;;;;;4923007;29;20027;-58
2022/03/19 11:12:50;;;;;;;0.55;0.55;;;;;;;;;;4925916;29;20496;-59
2022/03/19 11:15:17;;;;;;;0.28;0.28;;;;;;;;;;4921766;29;20024;-59
2022/03/19 11:17:44;;;;;;;3.63;0.73;;;;;;;;;;4927738;29;20035;-60
2022/03/19 11:20:10;;;;;;;0.25;0.25;;;;;;;;;;4926189;29;20389;-60
2022/03/19 11:22:42;;;;;;;1.08;0.30;;;;;;;;;;4922152;29;20108;-59
2022/03/19 11:25:13;;;;;;;0.90;0.80;;;;;;;;;;4923736;29;20028;-60
2022/03/19 11:27:41;;;;;;;0.47;0.45;;;;;;;;;;4922660;29;20031;-58
2022/03/19 11:30:13;;;;;;;1.40;0.32;;;;;;;;;;4918619;29;20020;-59
2022/03/19 11:32:38;;;;;;;0.22;0.22;;;;;;;;;;4917663;29;20135;-60
2022/03/19 11:35:05;;;;;;;5.13;1.10;;;;;;;;;;4917221;29;20111;-59
2022/03/19 11:37:49;;;;;;;0.68;0.50;;;;;;;;;;4922936;29;20060;-60
2022/03/19 11:40:14;;;;;;;0.45;0.45;;;;;;;;;;4917079;29;20092;-59
2022/03/19 11:42:55;;;;;;;1.23;1.13;;;;;;;;;;4928478;29;20028;-63
2022/03/19 11:45:21;;;;;;;1.40;1.30;;;;;;;;;;4925069;29;20469;-60
2022/03/19 11:47:46;;;;;;;0.40;0.40;;;;;;;;;;4929073;29;20380;-61
2022/03/19 11:50:18;;;;;;;3.90;0.68;;;;;;;;;;4926939;29;20111;-62
2022/03/19 11:52:44;;;;;;;2.22;1.20;;;;;;;;;;4919558;29;20032;-59
2022/03/19 11:55:10;;;;;;;0.30;0.30;;;;;;;;;;4913825;29;20807;-58
2022/03/19 11:57:50;;;;;;;1.58;1.23;;;;;;;;;;4914290;29;20016;-59
2022/03/19 12:00:15;;;;;;;1.55;1.52;;;;;;;;;;4919609;29;20064;-58
2022/03/19 12:02:59;;;;;;;1.05;1.05;;;;;;;;;;4916057;29;20102;-60
2022/03/19 12:05:26;;;;;;;1.50;1.40;;;;;;;;;;4917931;29;20066;-59
2022/03/19 12:07:54;;;;;;;0.38;0.38;;;;;;;;;;4920341;29;20036;-60
2022/03/19 12:10:21;;;;;;;2.78;1.52;;;;;;;;;;4917389;29;20028;-62
2022/03/19 12:12:47;;;;;;;2.50;1.42;;;;;;;;;;4920651;29;20457;-60
2022/03/19 12:15:31;;;;;;;0.55;0.55;;;;;;;;;;4923179;29;20023;-59
2022/03/19 12:18:14;;;;;;;1.85;1.75;;;;;;;;;;4923370;29;20028;-60
2022/03/19 12:20:43;;;;;;;0.85;0.85;;;;;;;;;;4926356;29;20035;-59
2022/03/19 12:23:08;;;;;;;1.48;1.38;;;;;;;;;;4918728;29;20427;-58
2022/03/19 12:25:41;;;;;;;1.52;1.42;;;;;;;;;;4920715;29;20110;-58
2022/03/19 12:28:07;;;;;;;1.55;0.77;;;;;;;;;;4919821;29;20029;-58
2022/03/19 12:30:35;;;;;;;0.50;0.50;;;;;;;;;;4920305;29;20378;-57
2022/03/19 12:33:00;;;;;;;1.48;0.57;;;;;;;;;;4924999;29;20031;-59
2022/03/19 12:35:26;;;;;;;0.90;0.90;;;;;;;;;;4926522;29;20016;-58
2022/03/19 12:37:56;;;;;;;4.13;1.42;;;;;;;;;;4922342;29;20084;-58
2022/03/19 12:40:23;;;;;;;1.00;1.00;;;;;;;;;;4927834;29;20347;-57
2022/03/19 12:42:55;;;;;;;1.85;1.05;;;;;;;;;;4924390;29;20028;-59
2022/03/19 12:45:40;;;;;;;2.40;1.70;;;;;;;;;;4927866;29;20107;-59
2022/03/19 12:48:10;;;;;;;0.85;0.85;;;;;;;;;;4925378;29;20039;-59
2022/03/19 12:50:35;;;;;;;2.30;0.98;;;;;;;;;;4923123;29;20032;-58
2022/03/19 12:53:00;;;;;;;0.90;0.85;;;;;;;;;;4925917;29;20099;-58
2022/03/19 12:55:26;;;;;;;4.93;0.98;;;;;;;;;;4920991;29;20036;-58
2022/03/19 12:57:58;;;;;;;4.32;0.40;;;;;;;;;;4926194;29;20024;-58
2022/03/19 13:00:24;;;;;;;1.60;0.80;;;;;;;;;;4916609;29;20484;-59
2022/03/19 13:02:51;;;;;;;1.85;0.73;;;;;;;;;;4921951;29;20119;-59
2022/03/19 13:05:16;;;;;;;0.63;0.38;;;;;;;;;;4922960;29;20139;-60
2022/03/19 13:07:59;;;;;;;0.40;0.40;;;;;;;;;;4907271;29;20028;-58
2022/03/19 13:10:24;;;;;;;0.60;0.60;;;;;;;;;;4924660;29;20382;-60
2022/03/19 13:13:01;;;;;;;2.60;0.35;;;;;;;;;;4928859;29;20059;-59
2022/03/19 13:15:26;;;;;;;2.55;2.03;;;;;;;;;;4922978;29;20032;-59
2022/03/19 13:17:52;;;;;;;0.65;0.60;;;;;;;;;;4923975;29;20132;-59
2022/03/19 13:20:18;;;;;;;2.22;0.75;;;;;;;;;;4915319;29;20051;-59
2022/03/19 13:22:43;;;;;;;1.30;0.93;;;;;;;;;;4924891;29;20460;-59
2022/03/19 13:25:09;;;;;;;0.60;0.60;;;;;;;;;;4919242;29;20024;-59
2022/03/19 13:27:35;;;;;;;0.73;0.73;;;;;;;;;;4903908;29;20059;-59
2022/03/19 13:30:02;;;;;;;2.33;0.73;;;;;;;;;;4906442;29;20084;-61
2022/03/19 13:32:30;;;;;;;4.75;0.50;;;;;;;;;;4925411;29;20031;-57
2022/03/19 13:34:57;;;;;;;1.02;0.75;;;;;;;;;;4921316;29;20383;-58
2022/03/19 13:37:23;;;;;;;0.70;0.70;;;;;;;;;;4918991;29;20509;-60
2022/03/19 13:39:57;;;;;;;1.70;0.80;;;;;;;;;;4926983;29;20032;-59
2022/03/19 13:42:28;;;;;;;3.28;0.90;;;;;;;;;;4924555;29;20571;-58
2022/03/19 13:45:01;;;;;;;0.95;0.95;;;;;;;;;;4901266;29;20355;-58
2022/03/19 13:47:34;;;;;;;2.08;1.08;;;;;;;;;;4916888;29;20103;-59
2022/03/19 13:50:00;;;;;;;1.05;0.75;;;;;;;;;;4920095;29;20610;-58
2022/03/19 13:52:33;;;;;;;2.65;0.65;;;;;;;;;;4915528;29;20035;-59
2022/03/19 13:55:01;;;;;;;0.63;0.50;;;;;;;;;;4920776;29;20039;-59
2022/03/19 13:57:31;;;;;;;1.52;0.68;;;;;;;;;;4917427;29;20032;-59
2022/03/19 14:00:29;;;;;;;0.88;0.88;;;;;;;;;;4904942;29;20036;-59
2022/03/19 14:02:54;;;;;;;2.70;1.17;;;;;;;;;;4920417;29;20159;-60
2022/03/19 14:05:38;;;;;;;0.35;0.30;;;;;;;;;;4917237;29;20313;-60
2022/03/19 14:08:10;;;;;;;0.85;0.57;;;;;;;;;;4902178;29;20036;-60
2022/03/19 14:10:36;;;;;;;5.10;0.73;;;;;;;;;;4922706;29;20727;-59
2022/03/19 14:13:11;;;;;;;0.98;0.88;;;;;;;;;;4899867;29;20036;-59
2022/03/19 14:15:40;;;;;;;0.75;0.75;;;;;;;;;;4917230;29;20460;-59
2022/03/19 14:18:07;;;;;;;0.20;0.20;;;;;;;;;;4917913;29;20493;-59
2022/03/19 14:20:33;;;;;;;1.55;0.68;;;;;;;;;;4914775;29;20032;-60
2022/03/19 14:22:58;;;;;;;2.35;0.63;;;;;;;;;;4918470;29;20342;-60
2022/03/19 14:25:24;;;;;;;0.40;0.40;;;;;;;;;;4916304;29;20479;-59
2022/03/19 14:27:49;;;;;;;0.70;0.70;;;;;;;;;;4914883;29;20031;-61
2022/03/19 14:30:14;;;;;;;0.00;0.00;;;;;;;;;;4921051;29;20111;-61
2022/03/19 14:32:40;;;;;;;0.57;0.57;;;;;;;;;;4915836;29;20064;-60
2022/03/19 14:35:06;;;;;;;0.68;0.68;;;;;;;;;;4916832;29;20032;-58
2022/03/19 14:37:31;;;;;;;2.88;1.17;;;;;;;;;;4917774;29;20024;-58
2022/03/19 14:39:57;;;;;;;2.30;1.05;;;;;;;;;;4922843;29;20032;-58
2022/03/19 14:42:22;;;;;;;0.93;0.82;;;;;;;;;;4922032;29;20028;-58
2022/03/19 14:44:47;;;;;;;1.15;1.05;;;;;;;;;;4920738;29;20028;-59
2022/03/19 14:47:13;;;;;;;0.40;0.40;;;;;;;;;;4921848;29;20046;-59
2022/03/19 14:49:38;;;;;;;1.85;0.73;;;;;;;;;;4925922;29;20039;-60
2022/03/19 14:52:03;;;;;;;2.10;0.65;;;;;;;;;;4923711;29;20032;-59
2022/03/19 14:54:28;;;;;;;1.00;1.00;;;;;;;;;;4921034;29;20024;-59
2022/03/19 14:56:54;;;;;;;3.47;0.93;;;;;;;;;;4919360;29;20024;-58